createdAt,value
2019-03-10T00:00:27.206Z,6.22
2019-03-10T00:01:37.017Z,5.92
2019-03-10T00:02:41.774Z,5.65
2019-03-10T00:03:46.553Z,5.62
2019-03-10T00:04:51.537Z,6.05
2019-03-10T00:05:56.515Z,6.37
2019-03-10T00:07:01.187Z,5.90
2019-03-10T00:08:08.055Z,5.83
2019-03-10T00:09:13.523Z,6.10
2019-03-10T00:10:18.250Z,5.97
2019-03-10T00:11:23.160Z,5.40
2019-03-10T00:12:27.888Z,6.55
2019-03-10T00:13:32.587Z,5.50
2019-03-10T00:14:37.861Z,6.22
2019-03-10T00:15:43.143Z,6.97
2019-03-10T00:16:48.125Z,6.05
2019-03-10T00:17:52.758Z,6.00
2019-03-10T00:18:58.300Z,5.85
2019-03-10T00:20:02.986Z,6.50
2019-03-10T00:21:08.247Z,6.30
2019-03-10T00:22:12.977Z,5.87
2019-03-10T00:23:17.699Z,5.53
2019-03-10T00:24:22.451Z,5.67
2019-03-10T00:25:27.160Z,6.22
2019-03-10T00:26:32.544Z,6.22
2019-03-10T00:27:37.312Z,7.08
2019-03-10T00:28:42.384Z,6.40
2019-03-10T00:29:47.075Z,6.00
2019-03-10T00:30:52.371Z,6.08
2019-03-10T00:31:57.655Z,5.58
2019-03-10T00:33:03.213Z,6.35
2019-03-10T00:34:08.103Z,6.22
2019-03-10T00:35:13.230Z,5.60
2019-03-10T00:36:18.247Z,6.90
2019-03-10T00:37:23.008Z,6.55
2019-03-10T00:38:29.552Z,6.08
2019-03-10T00:40:17.893Z,4.78
2019-03-10T00:41:54.770Z,6.28
2019-03-10T00:43:58.589Z,6.00
2019-03-10T00:45:43.090Z,5.45
2019-03-10T00:47:26.754Z,4.95
2019-03-10T00:49:20.743Z,6.05
2019-03-10T00:51:01.698Z,5.50
2019-03-10T00:52:13.456Z,5.05
2019-03-10T00:53:18.593Z,4.67
2019-03-10T00:54:23.611Z,6.22
2019-03-10T00:55:28.982Z,6.05
2019-03-10T00:56:34.377Z,4.97
2019-03-10T00:57:39.410Z,5.50
2019-03-10T00:58:44.445Z,5.80
2019-03-10T00:59:49.703Z,5.10
2019-03-10T01:00:54.699Z,6.10
2019-03-10T01:01:59.676Z,6.45
2019-03-10T01:03:05.211Z,5.60
2019-03-10T01:04:10.798Z,5.30
2019-03-10T01:05:16.086Z,5.67
2019-03-10T01:06:21.372Z,5.05
2019-03-10T01:07:26.363Z,5.10
2019-03-10T01:08:32.380Z,4.95
2019-03-10T01:09:37.690Z,4.72
2019-03-10T01:10:42.871Z,4.85
2019-03-10T01:11:48.212Z,5.37
2019-03-10T01:12:53.487Z,5.08
2019-03-10T01:13:58.757Z,5.47
2019-03-10T01:15:03.223Z,5.78
2019-03-10T01:16:08.559Z,5.12
2019-03-10T01:17:13.883Z,5.22
2019-03-10T01:18:19.991Z,5.47
2019-03-10T01:19:24.983Z,4.62
2019-03-10T01:20:30.510Z,5.15
2019-03-10T01:21:36.459Z,5.35
2019-03-10T01:22:41.380Z,5.40
2019-03-10T01:23:46.345Z,4.65
2019-03-10T01:24:51.333Z,5.75
2019-03-10T01:25:56.303Z,5.78
2019-03-10T01:27:01.375Z,4.33
2019-03-10T01:28:05.876Z,5.37
2019-03-10T01:29:10.614Z,4.70
2019-03-10T01:30:19.967Z,4.70
2019-03-10T01:31:33.495Z,3.87
2019-03-10T01:32:55.726Z,4.37
2019-03-10T01:34:34.610Z,5.00
2019-03-10T01:35:43.341Z,4.75
2019-03-10T01:36:48.313Z,4.90
2019-03-10T01:37:53.270Z,5.33
2019-03-10T01:38:58.003Z,5.10
2019-03-10T01:40:03.326Z,5.72
2019-03-10T01:41:08.066Z,4.90
2019-03-10T01:42:13.046Z,5.90
2019-03-10T01:43:18.318Z,5.33
2019-03-10T01:44:22.763Z,5.12
2019-03-10T01:45:28.085Z,5.33
2019-03-10T01:46:33.142Z,5.85
2019-03-10T01:47:38.876Z,5.40
2019-03-10T01:48:43.854Z,5.15
2019-03-10T01:49:49.396Z,5.92
2019-03-10T01:50:54.467Z,5.03
2019-03-10T01:51:59.225Z,5.45
2019-03-10T01:53:04.600Z,5.67
2019-03-10T01:54:09.636Z,4.85
2019-03-10T01:55:14.672Z,4.80
2019-03-10T01:56:19.677Z,5.60
2019-03-10T01:57:24.206Z,4.78
2019-03-10T01:58:29.430Z,5.75
2019-03-10T01:59:34.502Z,4.65
2019-03-10T02:00:39.581Z,5.37
2019-03-10T02:01:44.886Z,5.17
2019-03-10T02:02:50.243Z,5.87
2019-03-10T02:03:55.525Z,4.87
2019-03-10T02:05:00.819Z,5.35
2019-03-10T02:06:06.198Z,5.00
2019-03-10T02:07:11.158Z,5.30
2019-03-10T02:08:15.869Z,5.97
2019-03-10T02:09:21.516Z,5.90
2019-03-10T02:10:26.834Z,6.00
2019-03-10T02:11:32.533Z,5.33
2019-03-10T02:12:37.249Z,5.95
2019-03-10T02:13:41.694Z,4.62
2019-03-10T02:14:46.669Z,6.33
2019-03-10T02:15:51.889Z,5.60
2019-03-10T02:16:56.586Z,5.60
2019-03-10T02:18:01.590Z,7.28
2019-03-10T02:19:06.526Z,6.65
2019-03-10T02:20:13.552Z,6.62
2019-03-10T02:21:18.827Z,6.50
2019-03-10T02:22:24.548Z,7.45
2019-03-10T02:23:29.844Z,6.78
2019-03-10T02:24:35.384Z,6.15
2019-03-10T02:25:40.709Z,5.65
2019-03-10T02:26:45.793Z,5.72
2019-03-10T02:27:50.579Z,5.15
2019-03-10T02:28:55.867Z,6.72
2019-03-10T02:30:00.659Z,5.90
2019-03-10T02:31:05.335Z,6.37
2019-03-10T02:32:10.889Z,6.17
2019-03-10T02:33:16.061Z,6.15
2019-03-10T02:34:20.789Z,5.80
2019-03-10T02:35:25.555Z,5.87
2019-03-10T02:36:30.384Z,5.22
2019-03-10T02:37:35.690Z,5.12
2019-03-10T02:38:40.731Z,5.28
2019-03-10T02:39:45.550Z,5.60
2019-03-10T02:40:50.853Z,5.87
2019-03-10T02:41:55.886Z,5.20
2019-03-10T02:43:00.863Z,5.62
2019-03-10T02:44:05.596Z,5.35
2019-03-10T02:45:11.872Z,5.30
2019-03-10T02:46:16.843Z,4.90
2019-03-10T02:47:22.105Z,5.45
2019-03-10T02:48:26.876Z,5.22
2019-03-10T02:49:32.444Z,5.53
2019-03-10T02:50:37.401Z,5.65
2019-03-10T02:51:42.516Z,5.80
2019-03-10T02:52:47.752Z,4.47
2019-03-10T02:53:52.828Z,5.55
2019-03-10T02:54:57.857Z,5.37
2019-03-10T02:56:03.431Z,4.95
2019-03-10T02:57:08.253Z,4.53
2019-03-10T02:58:13.714Z,4.17
2019-03-10T02:59:19.090Z,5.00
2019-03-10T03:00:24.158Z,4.75
2019-03-10T03:01:28.897Z,5.55
2019-03-10T03:02:33.906Z,4.80
2019-03-10T03:03:39.257Z,4.90
2019-03-10T03:04:44.332Z,4.92
2019-03-10T03:05:49.578Z,5.28
2019-03-10T03:06:54.825Z,4.03
2019-03-10T03:08:00.365Z,5.30
2019-03-10T03:09:07.235Z,4.80
2019-03-10T03:10:12.547Z,4.50
2019-03-10T03:11:18.213Z,4.78
2019-03-10T03:12:23.474Z,4.62
2019-03-10T03:13:27.934Z,4.45
2019-03-10T03:14:32.454Z,4.22
2019-03-10T03:15:37.967Z,5.00
2019-03-10T03:16:43.282Z,5.15
2019-03-10T03:17:48.253Z,4.58
2019-03-10T03:18:53.209Z,4.62
2019-03-10T03:19:58.185Z,4.20
2019-03-10T03:21:03.566Z,4.65
2019-03-10T03:22:08.283Z,4.90
2019-03-10T03:23:13.367Z,6.05
2019-03-10T03:24:18.372Z,5.80
2019-03-10T03:25:23.403Z,4.97
2019-03-10T03:26:29.071Z,4.85
2019-03-10T03:27:34.357Z,5.42
2019-03-10T03:28:39.667Z,5.20
2019-03-10T03:29:44.987Z,4.75
2019-03-10T03:30:50.263Z,5.10
2019-03-10T03:31:55.234Z,4.65
2019-03-10T03:33:00.337Z,4.95
2019-03-10T03:34:06.095Z,4.60
2019-03-10T03:35:54.089Z,4.72
2019-03-10T03:36:59.393Z,4.90
2019-03-10T03:38:04.440Z,4.55
2019-03-10T03:39:29.216Z,4.30
2019-03-10T03:40:34.228Z,4.50
2019-03-10T03:41:39.020Z,4.30
2019-03-10T03:42:44.276Z,5.25
2019-03-10T03:43:49.640Z,4.20
2019-03-10T03:44:54.955Z,4.17
2019-03-10T03:46:00.063Z,4.15
2019-03-10T03:47:05.427Z,4.70
2019-03-10T03:48:10.477Z,4.37
2019-03-10T03:49:15.766Z,4.55
2019-03-10T03:50:20.449Z,4.15
2019-03-10T03:51:25.593Z,4.25
2019-03-10T03:52:30.830Z,4.15
2019-03-10T03:53:35.882Z,3.52
2019-03-10T03:54:41.166Z,3.50
2019-03-10T03:55:46.236Z,3.85
2019-03-10T03:56:51.313Z,3.98
2019-03-10T03:57:56.449Z,3.70
2019-03-10T03:59:01.189Z,3.35
2019-03-10T04:00:06.381Z,3.60
2019-03-10T04:01:35.997Z,3.62
2019-03-10T04:02:41.156Z,4.12
2019-03-10T04:03:45.967Z,3.62
2019-03-10T04:04:51.260Z,3.17
2019-03-10T04:05:55.948Z,3.27
2019-03-10T04:07:00.932Z,3.62
2019-03-10T04:08:05.932Z,3.55
2019-03-10T04:09:10.972Z,3.65
2019-03-10T04:10:15.940Z,3.62
2019-03-10T04:11:21.044Z,3.25
2019-03-10T04:12:25.485Z,3.60
2019-03-10T04:13:30.765Z,3.37
2019-03-10T04:14:36.174Z,3.02
2019-03-10T04:15:41.243Z,3.83
2019-03-10T04:16:46.226Z,3.05
2019-03-10T04:17:51.537Z,3.22
2019-03-10T04:18:56.578Z,2.85
2019-03-10T04:20:01.869Z,3.55
2019-03-10T04:21:06.582Z,3.25
2019-03-10T04:22:11.301Z,3.05
2019-03-10T04:23:16.388Z,3.02
2019-03-10T04:24:22.011Z,2.58
2019-03-10T04:25:26.694Z,2.52
2019-03-10T04:26:31.962Z,2.80
2019-03-10T04:27:37.086Z,3.40
2019-03-10T04:28:42.431Z,3.42
2019-03-10T04:29:47.755Z,3.17
2019-03-10T04:30:53.034Z,3.17
2019-03-10T04:31:58.544Z,2.98
2019-03-10T04:33:03.856Z,3.22
2019-03-10T04:34:08.918Z,3.40
2019-03-10T04:35:13.933Z,3.87
2019-03-10T04:36:18.980Z,3.27
2019-03-10T04:37:23.716Z,3.02
2019-03-10T04:38:28.742Z,2.90
2019-03-10T04:39:34.281Z,3.20
2019-03-10T04:40:39.047Z,2.75
2019-03-10T04:41:44.136Z,2.60
2019-03-10T04:42:49.114Z,2.75
2019-03-10T04:43:54.160Z,3.72
2019-03-10T04:44:58.927Z,2.62
2019-03-10T04:46:04.013Z,2.77
2019-03-10T04:47:08.816Z,3.00
2019-03-10T04:48:14.444Z,2.75
2019-03-10T04:49:19.701Z,2.30
2019-03-10T04:50:24.483Z,2.72
2019-03-10T04:51:29.799Z,2.27
2019-03-10T04:52:35.054Z,2.72
2019-03-10T04:53:40.284Z,2.95
2019-03-10T04:55:19.597Z,2.87
2019-03-10T04:56:49.625Z,3.08
2019-03-10T04:58:14.580Z,2.40
2019-03-10T04:59:19.644Z,2.98
2019-03-10T05:00:24.835Z,2.27
2019-03-10T05:01:30.121Z,2.85
2019-03-10T05:02:35.535Z,2.58
2019-03-10T05:03:40.824Z,3.08
2019-03-10T05:04:45.837Z,2.92
2019-03-10T05:05:51.125Z,3.20
2019-03-10T05:06:56.439Z,2.75
2019-03-10T05:08:01.516Z,2.62
2019-03-10T05:09:10.185Z,2.80
2019-03-10T05:10:15.444Z,3.30
2019-03-10T05:11:20.561Z,2.75
2019-03-10T05:12:25.601Z,2.65
2019-03-10T05:13:30.588Z,2.60
2019-03-10T05:14:35.461Z,3.65
2019-03-10T05:15:40.438Z,2.17
2019-03-10T05:16:45.551Z,2.55
2019-03-10T05:17:50.457Z,2.30
2019-03-10T05:18:55.986Z,2.87
2019-03-10T05:20:01.547Z,3.33
2019-03-10T05:21:08.582Z,3.20
2019-03-10T05:22:15.038Z,3.08
2019-03-10T05:23:35.118Z,2.70
2019-03-10T05:24:39.629Z,2.87
2019-03-10T05:25:44.350Z,2.98
2019-03-10T05:26:49.654Z,2.85
2019-03-10T05:27:54.896Z,2.62
2019-03-10T05:28:59.890Z,2.70
2019-03-10T05:30:04.913Z,2.65
2019-03-10T05:31:09.810Z,3.00
2019-03-10T05:32:15.326Z,2.77
2019-03-10T05:33:20.005Z,2.90
2019-03-10T05:34:24.979Z,2.33
2019-03-10T05:35:30.140Z,3.20
2019-03-10T05:36:35.284Z,3.25
2019-03-10T05:37:40.240Z,3.15
2019-03-10T05:38:45.897Z,3.12
2019-03-10T05:39:50.634Z,3.70
2019-03-10T05:40:56.225Z,3.42
2019-03-10T05:42:00.789Z,2.87
2019-03-10T05:43:05.590Z,2.77
2019-03-10T05:44:10.846Z,3.47
2019-03-10T05:45:15.841Z,2.90
2019-03-10T05:46:20.787Z,3.22
2019-03-10T05:47:25.752Z,3.33
2019-03-10T05:48:31.076Z,2.50
2019-03-10T05:49:36.554Z,3.02
2019-03-10T05:50:41.546Z,2.90
2019-03-10T05:51:46.303Z,2.85
2019-03-10T05:52:51.354Z,2.47
2019-03-10T05:53:56.578Z,3.00
2019-03-10T05:55:02.103Z,2.42
2019-03-10T05:56:07.273Z,3.08
2019-03-10T05:57:12.695Z,2.92
2019-03-10T05:58:18.241Z,2.50
2019-03-10T05:59:23.926Z,2.50
2019-03-10T06:00:29.046Z,2.95
2019-03-10T06:01:34.151Z,3.08
2019-03-10T06:02:39.817Z,2.85
2019-03-10T06:03:45.060Z,2.80
2019-03-10T06:04:50.792Z,2.42
2019-03-10T06:05:56.146Z,2.33
2019-03-10T06:07:01.745Z,2.98
2019-03-10T06:08:06.732Z,3.60
2019-03-10T06:09:11.422Z,2.85
2019-03-10T06:10:16.433Z,2.87
2019-03-10T06:11:21.836Z,3.22
2019-03-10T06:12:27.053Z,3.15
2019-03-10T06:13:31.516Z,3.00
2019-03-10T06:14:36.777Z,4.37
2019-03-10T06:15:41.839Z,2.95
2019-03-10T06:16:47.111Z,3.35
2019-03-10T06:17:52.545Z,3.83
2019-03-10T06:18:57.559Z,3.25
2019-03-10T06:20:02.841Z,3.30
2019-03-10T06:21:08.191Z,3.33
2019-03-10T06:22:12.916Z,3.47
2019-03-10T06:23:18.621Z,3.22
2019-03-10T06:24:23.338Z,4.10
2019-03-10T06:25:28.501Z,3.72
2019-03-10T06:26:33.580Z,4.25
2019-03-10T06:27:38.304Z,3.52
2019-03-10T06:28:43.296Z,3.30
2019-03-10T06:29:48.958Z,3.00
2019-03-10T06:30:56.333Z,3.20
2019-03-10T06:32:00.810Z,2.70
2019-03-10T06:33:05.830Z,3.12
2019-03-10T06:34:10.777Z,2.40
2019-03-10T06:35:15.888Z,2.90
2019-03-10T06:36:20.930Z,2.90
2019-03-10T06:37:25.977Z,3.27
2019-03-10T06:38:30.726Z,2.72
2019-03-10T06:39:35.976Z,2.60
2019-03-10T06:40:41.015Z,2.40
2019-03-10T06:41:45.578Z,2.52
2019-03-10T06:42:50.974Z,2.67
2019-03-10T06:43:56.172Z,2.75
2019-03-10T06:45:01.451Z,3.52
2019-03-10T06:46:06.126Z,2.47
2019-03-10T06:47:11.549Z,2.67
2019-03-10T06:48:16.583Z,2.10
2019-03-10T06:49:21.877Z,2.17
2019-03-10T06:50:26.559Z,2.52
2019-03-10T06:51:31.910Z,2.62
2019-03-10T06:52:37.008Z,2.08
2019-03-10T06:53:42.315Z,2.70
2019-03-10T06:54:48.093Z,1.80
2019-03-10T06:55:53.371Z,2.45
2019-03-10T06:56:58.623Z,2.33
2019-03-10T06:58:03.884Z,2.10
2019-03-10T06:59:08.900Z,3.15
2019-03-10T07:00:13.963Z,2.05
2019-03-10T07:01:19.279Z,2.40
2019-03-10T07:02:24.552Z,1.87
2019-03-10T07:03:29.655Z,2.83
2019-03-10T07:04:35.073Z,2.25
2019-03-10T07:05:39.878Z,2.70
2019-03-10T07:06:44.739Z,3.12
2019-03-10T07:07:49.185Z,2.22
2019-03-10T07:08:53.972Z,1.87
2019-03-10T07:09:59.198Z,2.55
2019-03-10T07:11:04.226Z,1.87
2019-03-10T07:12:08.945Z,2.42
2019-03-10T07:13:13.674Z,2.12
2019-03-10T07:14:18.660Z,2.30
2019-03-10T07:15:23.456Z,2.22
2019-03-10T07:16:28.975Z,2.37
2019-03-10T07:17:34.313Z,2.60
2019-03-10T07:18:39.670Z,2.58
2019-03-10T07:19:44.659Z,2.72
2019-03-10T07:20:49.786Z,2.58
2019-03-10T07:21:55.050Z,2.85
2019-03-10T07:22:59.739Z,2.90
2019-03-10T07:24:05.047Z,2.58
2019-03-10T07:25:09.911Z,2.40
2019-03-10T07:26:15.125Z,2.55
2019-03-10T07:27:19.559Z,2.95
2019-03-10T07:28:31.769Z,2.52
2019-03-10T07:29:49.940Z,2.45
2019-03-10T07:31:14.210Z,2.25
2019-03-10T07:32:24.104Z,2.08
2019-03-10T07:33:47.941Z,2.52
2019-03-10T07:35:21.261Z,2.72
2019-03-10T07:36:50.724Z,2.80
2019-03-10T07:38:32.799Z,2.17
2019-03-10T07:39:59.324Z,2.22
2019-03-10T07:41:22.710Z,2.55
2019-03-10T07:42:35.536Z,2.75
2019-03-10T07:44:05.939Z,2.30
2019-03-10T07:45:41.541Z,2.42
2019-03-10T07:46:52.767Z,2.27
2019-03-10T07:48:35.157Z,2.80
2019-03-10T07:49:46.550Z,2.83
2019-03-10T07:51:19.589Z,2.98
2019-03-10T07:52:42.244Z,2.67
2019-03-10T07:54:09.508Z,2.95
2019-03-10T07:55:36.149Z,3.00
2019-03-10T07:56:59.010Z,3.17
2019-03-10T07:58:32.010Z,2.80
2019-03-10T07:59:55.000Z,2.98
2019-03-10T08:01:17.881Z,3.12
2019-03-10T08:03:00.204Z,3.30
2019-03-10T08:04:23.795Z,3.55
2019-03-10T08:05:40.423Z,3.30
2019-03-10T08:07:19.746Z,2.70
2019-03-10T08:08:30.083Z,3.30
2019-03-10T08:09:52.425Z,3.60
2019-03-10T08:11:19.119Z,3.25
2019-03-10T08:12:41.617Z,3.72
2019-03-10T08:14:05.203Z,3.37
2019-03-10T08:15:31.681Z,3.65
2019-03-10T08:17:01.429Z,2.98
2019-03-10T08:18:30.952Z,3.02
2019-03-10T08:19:55.127Z,2.92
2019-03-10T08:21:09.725Z,4.12
2019-03-10T08:22:32.849Z,3.75
2019-03-10T08:23:50.654Z,3.08
2019-03-10T08:25:24.179Z,3.22
2019-03-10T08:26:51.073Z,3.30
2019-03-10T08:28:08.764Z,3.58
2019-03-10T08:29:38.979Z,3.45
2019-03-10T08:31:02.722Z,3.27
2019-03-10T08:32:29.506Z,3.75
2019-03-10T08:33:59.633Z,3.98
2019-03-10T08:35:19.102Z,3.98
2019-03-10T08:36:32.510Z,3.12
2019-03-10T08:37:43.820Z,3.25
2019-03-10T08:39:06.692Z,3.58
2019-03-10T08:40:20.523Z,3.90
2019-03-10T08:41:45.897Z,4.30
2019-03-10T08:43:16.295Z,3.52
2019-03-10T08:44:35.400Z,3.65
2019-03-10T08:46:02.042Z,3.98
2019-03-10T08:47:32.084Z,4.00
2019-03-10T08:48:49.775Z,3.12
2019-03-10T08:50:05.559Z,3.67
2019-03-10T08:51:32.381Z,3.47
2019-03-10T08:52:44.110Z,3.77
2019-03-10T08:53:53.245Z,3.52
2019-03-10T08:55:29.388Z,3.52
2019-03-10T08:57:05.708Z,3.37
2019-03-10T08:58:35.220Z,2.70
2019-03-10T08:59:55.471Z,2.90
2019-03-10T09:01:13.764Z,2.08
2019-03-10T09:02:46.614Z,2.17
2019-03-10T09:04:13.817Z,2.37
2019-03-10T09:05:36.306Z,1.80
2019-03-10T09:06:58.836Z,2.08
2019-03-10T09:08:21.530Z,2.45
2019-03-10T09:09:45.856Z,2.15
2019-03-10T09:11:13.060Z,2.27
2019-03-10T09:12:23.444Z,1.70
2019-03-10T09:13:35.163Z,2.02
2019-03-10T09:15:02.081Z,1.70
2019-03-10T09:16:20.342Z,1.27
2019-03-10T09:17:32.120Z,1.30
2019-03-10T09:18:54.878Z,1.20
2019-03-10T09:20:16.258Z,0.95
2019-03-10T09:21:28.951Z,1.30
2019-03-10T09:22:50.884Z,1.10
2019-03-10T09:24:05.971Z,1.20
2019-03-10T09:25:33.149Z,1.05
2019-03-10T09:26:45.046Z,1.00
2019-03-10T09:28:11.664Z,1.10
2019-03-10T09:29:47.347Z,1.10
2019-03-10T09:31:01.696Z,0.95
2019-03-10T09:32:34.170Z,0.95
2019-03-10T09:34:01.619Z,1.02
2019-03-10T09:35:26.078Z,1.22
2019-03-10T09:36:59.054Z,1.10
2019-03-10T09:38:10.012Z,1.12
2019-03-10T09:39:22.344Z,2.12
2019-03-10T09:40:45.664Z,1.40
2019-03-10T09:42:08.819Z,1.22
2019-03-10T09:43:32.451Z,1.20
2019-03-10T09:44:47.405Z,1.22
2019-03-10T09:46:26.765Z,1.30
2019-03-10T09:47:58.415Z,1.30
2019-03-10T09:49:22.310Z,1.37
2019-03-10T09:50:52.039Z,1.27
2019-03-10T09:52:18.807Z,1.30
2019-03-10T09:53:49.333Z,1.30
2019-03-10T09:55:09.421Z,1.45
2019-03-10T09:56:22.434Z,1.35
2019-03-10T09:57:55.005Z,1.35
2019-03-10T09:59:14.678Z,1.40
2019-03-10T10:00:38.538Z,1.37
2019-03-10T10:02:07.968Z,1.40
2019-03-10T10:03:34.557Z,1.72
2019-03-10T10:05:01.026Z,1.80
2019-03-10T10:06:27.500Z,1.65
2019-03-10T10:07:50.714Z,1.67
2019-03-10T10:09:13.196Z,1.80
2019-03-10T10:10:28.732Z,1.60
2019-03-10T10:11:45.917Z,2.50
2019-03-10T10:13:16.161Z,1.80
2019-03-10T10:14:26.970Z,2.20
2019-03-10T10:15:54.254Z,2.20
2019-03-10T10:17:18.361Z,2.00
2019-03-10T10:18:40.886Z,2.40
2019-03-10T10:20:11.141Z,2.40
2019-03-10T10:21:37.714Z,2.20
2019-03-10T10:22:49.012Z,1.90
2019-03-10T10:24:07.043Z,1.85
2019-03-10T10:25:22.752Z,1.90
2019-03-10T10:26:56.317Z,1.72
2019-03-10T10:28:23.212Z,2.00
2019-03-10T10:29:56.140Z,2.22
2019-03-10T10:31:29.310Z,1.85
2019-03-10T10:32:41.538Z,2.00
2019-03-10T10:34:08.349Z,2.12
2019-03-10T10:35:32.117Z,2.30
2019-03-10T10:36:58.722Z,2.85
2019-03-10T10:38:18.715Z,2.52
2019-03-10T10:39:41.977Z,2.83
2019-03-10T10:41:06.136Z,1.87
2019-03-10T10:42:28.673Z,1.87
2019-03-10T10:43:52.282Z,3.35
2019-03-10T10:45:10.997Z,2.75
2019-03-10T10:46:33.813Z,2.40
2019-03-10T10:47:52.481Z,2.60
2019-03-10T10:49:19.091Z,2.75
2019-03-10T10:50:30.964Z,2.47
2019-03-10T10:51:54.391Z,2.80
2019-03-10T10:53:22.103Z,2.65
2019-03-10T10:54:44.786Z,1.98
2019-03-10T10:56:14.196Z,2.75
2019-03-10T10:57:27.223Z,2.35
2019-03-10T10:58:45.465Z,2.47
2019-03-10T11:00:03.428Z,2.70
2019-03-10T11:01:25.914Z,2.10
2019-03-10T11:02:48.610Z,2.80
2019-03-10T11:04:18.098Z,2.50
2019-03-10T11:05:40.165Z,2.67
2019-03-10T11:06:50.366Z,2.12
2019-03-10T11:08:10.740Z,2.30
2019-03-10T11:09:31.337Z,2.58
2019-03-10T11:10:44.081Z,2.98
2019-03-10T11:12:14.042Z,2.72
2019-03-10T11:13:31.570Z,1.80
2019-03-10T11:14:55.586Z,2.00
2019-03-10T11:16:09.928Z,2.58
2019-03-10T11:17:27.308Z,2.08
2019-03-10T11:18:51.205Z,2.42
2019-03-10T11:20:13.903Z,2.00
2019-03-10T11:21:37.556Z,2.67
2019-03-10T11:23:16.361Z,2.22
2019-03-10T11:24:39.927Z,2.25
2019-03-10T11:25:52.062Z,3.08
2019-03-10T11:27:12.178Z,2.40
2019-03-10T11:28:39.240Z,2.92
2019-03-10T11:30:02.009Z,2.17
2019-03-10T11:31:17.231Z,2.50
2019-03-10T11:32:49.885Z,2.33
2019-03-10T11:34:05.604Z,2.85
2019-03-10T11:35:33.239Z,3.42
2019-03-10T11:37:15.287Z,2.85
2019-03-10T11:38:39.146Z,2.95
2019-03-10T11:39:50.514Z,2.60
2019-03-10T11:41:12.537Z,2.47
2019-03-10T11:42:35.250Z,2.80
2019-03-10T11:43:45.924Z,3.40
2019-03-10T11:45:06.719Z,2.90
2019-03-10T11:46:50.068Z,2.90
2019-03-10T11:48:04.281Z,2.95
2019-03-10T11:49:30.906Z,3.30
2019-03-10T11:50:55.064Z,2.60
2019-03-10T11:52:08.198Z,3.15
2019-03-10T11:53:25.742Z,3.35
2019-03-10T11:54:44.072Z,3.20
2019-03-10T11:56:14.105Z,2.85
2019-03-10T11:57:24.083Z,3.15
2019-03-10T11:58:51.277Z,2.52
2019-03-10T12:00:03.122Z,2.72
2019-03-10T12:01:38.545Z,2.65
2019-03-10T12:03:02.118Z,2.87
2019-03-10T12:04:25.746Z,2.50
2019-03-10T12:05:49.367Z,3.47
2019-03-10T12:07:11.934Z,2.80
2019-03-10T12:08:34.836Z,2.33
2019-03-10T12:09:40.130Z,2.58
2019-03-10T12:10:45.258Z,2.80
2019-03-10T12:11:50.685Z,3.30
2019-03-10T12:12:55.133Z,2.75
2019-03-10T12:14:00.276Z,2.80
2019-03-10T12:15:05.449Z,3.05
2019-03-10T12:16:10.430Z,2.92
2019-03-10T12:17:15.741Z,2.50
2019-03-10T12:18:21.091Z,2.85
2019-03-10T12:19:26.259Z,3.22
2019-03-10T12:20:31.018Z,3.67
2019-03-10T12:21:36.161Z,3.65
2019-03-10T12:22:41.450Z,3.25
2019-03-10T12:23:47.011Z,2.95
2019-03-10T12:24:52.411Z,3.05
2019-03-10T12:25:57.184Z,3.25
2019-03-10T12:27:02.413Z,3.52
2019-03-10T12:28:07.364Z,3.67
2019-03-10T12:29:12.357Z,3.40
2019-03-10T12:30:17.254Z,3.20
2019-03-10T12:31:22.607Z,3.02
2019-03-10T12:32:28.223Z,3.65
2019-03-10T12:33:35.949Z,2.87
2019-03-10T12:34:40.952Z,3.45
2019-03-10T12:35:45.992Z,3.30
2019-03-10T12:36:50.601Z,3.40
2019-03-10T12:37:55.662Z,2.27
2019-03-10T12:39:00.645Z,3.83
2019-03-10T12:40:05.592Z,4.08
2019-03-10T12:41:10.636Z,3.60
2019-03-10T12:42:15.629Z,4.12
2019-03-10T12:43:20.944Z,3.58
2019-03-10T12:44:26.215Z,2.90
2019-03-10T12:45:31.221Z,2.92
2019-03-10T12:46:36.063Z,2.95
2019-03-10T12:47:41.454Z,2.70
2019-03-10T12:48:46.708Z,2.83
2019-03-10T12:49:51.446Z,2.70
2019-03-10T12:50:55.936Z,2.77
2019-03-10T12:52:01.505Z,2.37
2019-03-10T12:53:06.967Z,3.10
2019-03-10T12:54:12.222Z,2.45
2019-03-10T12:55:17.229Z,2.25
2019-03-10T12:56:21.939Z,1.95
2019-03-10T12:57:27.437Z,2.65
2019-03-10T12:58:32.611Z,2.60
2019-03-10T12:59:37.986Z,3.02
2019-03-10T13:00:43.010Z,2.37
2019-03-10T13:01:47.813Z,2.70
2019-03-10T13:02:52.851Z,3.00
2019-03-10T13:03:59.148Z,3.55
2019-03-10T13:05:04.117Z,3.08
2019-03-10T13:06:09.207Z,2.60
2019-03-10T13:07:14.257Z,3.22
2019-03-10T13:08:18.959Z,3.05
2019-03-10T13:09:24.232Z,2.62
2019-03-10T13:10:29.212Z,3.67
2019-03-10T13:11:34.391Z,3.50
2019-03-10T13:12:39.385Z,3.65
2019-03-10T13:13:44.932Z,3.00
2019-03-10T13:14:58.927Z,3.10
2019-03-10T13:15:56.088Z,3.77
2019-03-10T13:17:01.580Z,3.92
2019-03-10T13:18:06.342Z,2.92
2019-03-10T13:19:11.714Z,3.65
2019-03-10T13:20:27.537Z,3.22
2019-03-10T13:21:26.094Z,3.00
2019-03-10T13:22:31.621Z,2.80
2019-03-10T13:23:36.904Z,2.77
2019-03-10T13:24:41.896Z,3.00
2019-03-10T13:25:46.411Z,2.90
2019-03-10T13:26:51.427Z,3.60
2019-03-10T13:27:56.913Z,2.50
2019-03-10T13:29:01.945Z,2.90
2019-03-10T13:30:07.039Z,2.70
2019-03-10T13:31:12.009Z,3.30
2019-03-10T13:32:17.203Z,3.00
2019-03-10T13:33:21.681Z,2.60
2019-03-10T13:34:27.117Z,2.67
2019-03-10T13:35:32.204Z,2.58
2019-03-10T13:36:37.455Z,2.72
2019-03-10T13:37:42.422Z,2.92
2019-03-10T13:38:47.142Z,2.95
2019-03-10T13:39:51.879Z,2.75
2019-03-10T13:40:56.956Z,3.33
2019-03-10T13:42:01.637Z,2.58
2019-03-10T13:43:06.676Z,2.92
2019-03-10T13:44:11.957Z,2.75
2019-03-10T13:45:16.717Z,2.77
2019-03-10T13:46:21.841Z,2.50
2019-03-10T13:47:26.654Z,2.75
2019-03-10T13:48:31.410Z,3.17
2019-03-10T13:49:36.447Z,2.55
2019-03-10T13:50:41.180Z,2.35
2019-03-10T13:51:46.736Z,1.72
2019-03-10T13:52:51.236Z,1.75
2019-03-10T13:53:56.267Z,1.80
2019-03-10T13:55:01.229Z,1.70
2019-03-10T13:56:05.955Z,1.70
2019-03-10T13:57:11.229Z,2.00
2019-03-10T13:58:16.488Z,1.10
2019-03-10T13:59:21.519Z,1.55
2019-03-10T14:00:26.366Z,1.10
2019-03-10T14:01:31.524Z,1.00
2019-03-10T14:02:36.587Z,1.10
2019-03-10T14:03:41.766Z,1.00
2019-03-10T14:04:47.078Z,0.90
2019-03-10T14:05:51.822Z,1.22
2019-03-10T14:06:57.259Z,0.98
2019-03-10T14:08:02.252Z,1.20
2019-03-10T14:09:08.350Z,1.10
2019-03-10T14:10:13.200Z,1.32
2019-03-10T14:11:17.729Z,0.95
2019-03-10T14:12:22.720Z,1.10
2019-03-10T14:13:27.784Z,1.40
2019-03-10T14:14:33.084Z,1.32
2019-03-10T14:15:38.544Z,1.20
2019-03-10T14:16:43.859Z,0.78
2019-03-10T14:17:49.633Z,1.10
2019-03-10T14:18:55.068Z,0.80
2019-03-10T14:20:00.449Z,1.17
2019-03-10T14:21:05.659Z,2.37
2019-03-10T14:22:10.663Z,1.20
2019-03-10T14:23:15.423Z,1.00
2019-03-10T14:24:20.109Z,1.07
2019-03-10T14:25:25.234Z,1.07
2019-03-10T14:26:30.912Z,1.10
2019-03-10T14:27:35.984Z,1.00
2019-03-10T14:28:40.709Z,1.00
2019-03-10T14:29:46.384Z,1.35
2019-03-10T14:30:51.585Z,0.93
2019-03-10T14:31:56.595Z,1.30
2019-03-10T14:33:01.579Z,1.17
2019-03-10T14:34:06.592Z,1.00
2019-03-10T14:35:11.396Z,0.93
2019-03-10T14:36:16.786Z,1.22
2019-03-10T14:37:22.103Z,1.42
2019-03-10T14:38:28.076Z,1.77
2019-03-10T14:39:33.136Z,1.35
2019-03-10T14:40:38.144Z,1.45
2019-03-10T14:41:42.939Z,1.57
2019-03-10T14:42:47.643Z,1.50
2019-03-10T14:43:52.345Z,1.67
2019-03-10T14:44:57.608Z,1.50
2019-03-10T14:46:02.045Z,1.60
2019-03-10T14:47:07.418Z,1.30
2019-03-10T14:48:12.414Z,1.10
2019-03-10T14:49:23.317Z,1.25
2019-03-10T14:50:24.413Z,1.20
2019-03-10T14:51:29.633Z,1.40
2019-03-10T14:52:34.708Z,1.70
2019-03-10T14:53:40.124Z,1.30
2019-03-10T14:54:44.631Z,1.57
2019-03-10T14:55:50.203Z,1.07
2019-03-10T14:56:54.885Z,1.30
2019-03-10T14:57:59.860Z,1.70
2019-03-10T14:59:04.646Z,1.37
2019-03-10T15:00:13.005Z,1.22
2019-03-10T15:01:18.010Z,1.45
2019-03-10T15:02:22.739Z,1.77
2019-03-10T15:03:28.410Z,1.40
2019-03-10T15:04:33.256Z,1.60
2019-03-10T15:05:38.531Z,1.07
2019-03-10T15:06:43.570Z,1.60
2019-03-10T15:07:48.857Z,2.33
2019-03-10T15:08:54.408Z,1.70
2019-03-10T15:09:59.649Z,1.85
2019-03-10T15:11:04.602Z,1.60
2019-03-10T15:12:09.955Z,1.60
2019-03-10T15:13:15.228Z,1.37
2019-03-10T15:14:19.935Z,1.50
2019-03-10T15:15:25.200Z,1.37
2019-03-10T15:16:30.552Z,1.72
2019-03-10T15:17:35.552Z,1.30
2019-03-10T15:18:40.859Z,1.42
2019-03-10T15:19:45.584Z,1.72
2019-03-10T15:20:50.825Z,1.82
2019-03-10T15:21:56.186Z,1.45
2019-03-10T15:23:01.725Z,1.45
2019-03-10T15:24:06.832Z,1.80
2019-03-10T15:25:12.543Z,1.95
2019-03-10T15:26:17.795Z,1.60
2019-03-10T15:27:23.496Z,1.62
2019-03-10T15:28:28.441Z,1.30
2019-03-10T15:29:33.300Z,1.35
2019-03-10T15:30:38.001Z,0.88
2019-03-10T15:31:42.961Z,1.47
2019-03-10T15:32:48.214Z,1.60
2019-03-10T15:33:53.255Z,2.05
2019-03-10T15:34:58.234Z,1.40
2019-03-10T15:36:02.957Z,1.52
2019-03-10T15:37:07.432Z,1.12